sensor_id;sensor_type;location;lat;lon;timestamp;P1;durP1;ratioP1;P2;durP2;ratioP2
22525;SDS011;11429;50.842;4.386;2023-03-19T00:01:56;5.57;;;2.80;;
22525;SDS011;11429;50.842;4.386;2023-03-19T00:04:26;2.90;;;2.20;;
22525;SDS011;11429;50.842;4.386;2023-03-19T00:06:52;3.92;;;2.42;;
22525;SDS011;11429;50.842;4.386;2023-03-19T00:09:18;5.63;;;2.90;;
22525;SDS011;11429;50.842;4.386;2023-03-19T00:11:44;6.35;;;3.10;;
22525;SDS011;11429;50.842;4.386;2023-03-19T00:14:11;4.43;;;2.83;;
22525;SDS011;11429;50.842;4.386;2023-03-19T00:16:36;4.85;;;2.80;;
22525;SDS011;11429;50.842;4.386;2023-03-19T00:19:02;6.72;;;2.70;;
22525;SDS011;11429;50.842;4.386;2023-03-19T00:21:28;4.07;;;2.65;;
22525;SDS011;11429;50.842;4.386;2023-03-19T00:23:56;4.30;;;3.10;;
22525;SDS011;11429;50.842;4.386;2023-03-19T00:26:25;6.78;;;3.15;;
22525;SDS011;11429;50.842;4.386;2023-03-19T00:28:52;4.05;;;2.83;;
22525;SDS011;11429;50.842;4.386;2023-03-19T00:31:18;5.30;;;2.80;;
22525;SDS011;11429;50.842;4.386;2023-03-19T00:33:44;4.00;;;3.10;;
22525;SDS011;11429;50.842;4.386;2023-03-19T00:36:10;6.90;;;3.70;;
22525;SDS011;11429;50.842;4.386;2023-03-19T00:38:36;5.82;;;3.25;;
22525;SDS011;11429;50.842;4.386;2023-03-19T00:41:03;5.68;;;3.40;;
22525;SDS011;11429;50.842;4.386;2023-03-19T00:43:30;4.65;;;3.22;;
22525;SDS011;11429;50.842;4.386;2023-03-19T00:45:56;5.10;;;3.20;;
22525;SDS011;11429;50.842;4.386;2023-03-19T00:48:22;6.10;;;3.65;;
22525;SDS011;11429;50.842;4.386;2023-03-19T00:50:48;6.15;;;3.53;;
22525;SDS011;11429;50.842;4.386;2023-03-19T00:53:14;5.78;;;3.65;;
22525;SDS011;11429;50.842;4.386;2023-03-19T00:55:40;5.97;;;3.88;;
22525;SDS011;11429;50.842;4.386;2023-03-19T00:58:07;4.95;;;3.67;;
22525;SDS011;11429;50.842;4.386;2023-03-19T01:00:34;4.50;;;3.80;;
22525;SDS011;11429;50.842;4.386;2023-03-19T01:03:01;5.53;;;3.67;;
22525;SDS011;11429;50.842;4.386;2023-03-19T01:05:28;5.47;;;3.65;;
22525;SDS011;11429;50.842;4.386;2023-03-19T01:07:54;8.98;;;4.30;;
22525;SDS011;11429;50.842;4.386;2023-03-19T01:10:21;6.28;;;3.80;;
22525;SDS011;11429;50.842;4.386;2023-03-19T01:12:47;6.93;;;3.80;;
22525;SDS011;11429;50.842;4.386;2023-03-19T01:15:14;6.38;;;4.00;;
22525;SDS011;11429;50.842;4.386;2023-03-19T01:17:40;6.22;;;4.10;;
22525;SDS011;11429;50.842;4.386;2023-03-19T01:20:06;5.07;;;3.60;;
22525;SDS011;11429;50.842;4.386;2023-03-19T01:22:40;6.30;;;3.45;;
22525;SDS011;11429;50.842;4.386;2023-03-19T01:25:07;7.65;;;4.28;;
22525;SDS011;11429;50.842;4.386;2023-03-19T01:27:34;7.63;;;3.95;;
22525;SDS011;11429;50.842;4.386;2023-03-19T01:30:00;5.25;;;4.03;;
22525;SDS011;11429;50.842;4.386;2023-03-19T01:32:26;5.20;;;4.10;;
22525;SDS011;11429;50.842;4.386;2023-03-19T01:34:52;6.28;;;4.15;;
22525;SDS011;11429;50.842;4.386;2023-03-19T01:37:18;6.35;;;4.30;;
22525;SDS011;11429;50.842;4.386;2023-03-19T01:39:44;5.55;;;4.20;;
22525;SDS011;11429;50.842;4.386;2023-03-19T01:42:10;7.40;;;4.25;;
22525;SDS011;11429;50.842;4.386;2023-03-19T01:44:37;9.60;;;4.80;;
22525;SDS011;11429;50.842;4.386;2023-03-19T01:47:05;6.82;;;4.90;;
22525;SDS011;11429;50.842;4.386;2023-03-19T01:50:03;10.13;;;5.38;;
22525;SDS011;11429;50.842;4.386;2023-03-19T01:52:31;6.10;;;5.00;;
22525;SDS011;11429;50.842;4.386;2023-03-19T01:55:00;8.30;;;6.47;;
22525;SDS011;11429;50.842;4.386;2023-03-19T01:57:28;9.20;;;5.20;;
22525;SDS011;11429;50.842;4.386;2023-03-19T01:59:56;8.98;;;5.20;;
22525;SDS011;11429;50.842;4.386;2023-03-19T02:02:26;7.07;;;5.72;;
22525;SDS011;11429;50.842;4.386;2023-03-19T02:05:03;7.75;;;5.60;;
22525;SDS011;11429;50.842;4.386;2023-03-19T02:07:36;10.93;;;6.68;;
22525;SDS011;11429;50.842;4.386;2023-03-19T02:10:06;6.90;;;5.80;;
22525;SDS011;11429;50.842;4.386;2023-03-19T02:12:34;8.43;;;6.40;;
22525;SDS011;11429;50.842;4.386;2023-03-19T02:15:00;8.15;;;6.22;;
22525;SDS011;11429;50.842;4.386;2023-03-19T02:17:26;10.50;;;7.20;;
22525;SDS011;11429;50.842;4.386;2023-03-19T02:22:24;11.40;;;7.72;;
22525;SDS011;11429;50.842;4.386;2023-03-19T02:27:35;11.77;;;7.93;;
22525;SDS011;11429;50.842;4.386;2023-03-19T02:30:16;9.75;;;8.20;;
22525;SDS011;11429;50.842;4.386;2023-03-19T02:32:43;11.18;;;8.70;;
22525;SDS011;11429;50.842;4.386;2023-03-19T02:35:09;11.30;;;8.63;;
22525;SDS011;11429;50.842;4.386;2023-03-19T02:37:34;11.65;;;8.68;;
22525;SDS011;11429;50.842;4.386;2023-03-19T02:40:05;11.65;;;9.30;;
22525;SDS011;11429;50.842;4.386;2023-03-19T02:42:35;12.23;;;9.30;;
22525;SDS011;11429;50.842;4.386;2023-03-19T02:45:01;10.48;;;8.60;;
22525;SDS011;11429;50.842;4.386;2023-03-19T02:47:26;12.63;;;8.80;;
22525;SDS011;11429;50.842;4.386;2023-03-19T02:49:52;10.90;;;9.30;;
22525;SDS011;11429;50.842;4.386;2023-03-19T02:52:19;11.35;;;8.98;;
22525;SDS011;11429;50.842;4.386;2023-03-19T02:54:45;13.45;;;9.80;;
22525;SDS011;11429;50.842;4.386;2023-03-19T02:57:12;10.82;;;9.43;;
22525;SDS011;11429;50.842;4.386;2023-03-19T02:59:38;12.93;;;9.48;;
22525;SDS011;11429;50.842;4.386;2023-03-19T03:02:04;11.93;;;10.32;;
22525;SDS011;11429;50.842;4.386;2023-03-19T03:04:31;11.10;;;9.90;;
22525;SDS011;11429;50.842;4.386;2023-03-19T03:06:58;13.20;;;10.70;;
22525;SDS011;11429;50.842;4.386;2023-03-19T03:09:24;12.73;;;11.13;;
22525;SDS011;11429;50.842;4.386;2023-03-19T03:11:51;13.43;;;10.65;;
22525;SDS011;11429;50.842;4.386;2023-03-19T03:14:17;14.68;;;11.32;;
22525;SDS011;11429;50.842;4.386;2023-03-19T03:16:43;15.60;;;11.48;;
22525;SDS011;11429;50.842;4.386;2023-03-19T03:19:08;13.40;;;11.70;;
22525;SDS011;11429;50.842;4.386;2023-03-19T03:21:35;13.25;;;11.23;;
22525;SDS011;11429;50.842;4.386;2023-03-19T03:24:01;12.55;;;10.27;;
22525;SDS011;11429;50.842;4.386;2023-03-19T03:26:27;13.10;;;11.43;;
22525;SDS011;11429;50.842;4.386;2023-03-19T03:28:53;14.77;;;11.90;;
22525;SDS011;11429;50.842;4.386;2023-03-19T03:31:19;13.95;;;11.05;;
22525;SDS011;11429;50.842;4.386;2023-03-19T03:33:45;15.23;;;11.80;;
22525;SDS011;11429;50.842;4.386;2023-03-19T03:36:11;13.40;;;11.48;;
22525;SDS011;11429;50.842;4.386;2023-03-19T03:38:37;15.25;;;12.50;;
22525;SDS011;11429;50.842;4.386;2023-03-19T03:41:03;15.20;;;13.02;;
22525;SDS011;11429;50.842;4.386;2023-03-19T03:43:29;16.60;;;12.70;;
22525;SDS011;11429;50.842;4.386;2023-03-19T03:45:55;14.48;;;12.48;;
22525;SDS011;11429;50.842;4.386;2023-03-19T03:48:21;16.02;;;12.65;;
22525;SDS011;11429;50.842;4.386;2023-03-19T03:50:47;14.70;;;12.63;;
22525;SDS011;11429;50.842;4.386;2023-03-19T03:53:13;14.90;;;11.77;;
22525;SDS011;11429;50.842;4.386;2023-03-19T03:55:39;14.10;;;12.60;;
22525;SDS011;11429;50.842;4.386;2023-03-19T03:58:05;15.85;;;13.23;;
22525;SDS011;11429;50.842;4.386;2023-03-19T04:00:31;16.45;;;13.18;;
22525;SDS011;11429;50.842;4.386;2023-03-19T04:02:56;17.73;;;13.45;;
22525;SDS011;11429;50.842;4.386;2023-03-19T04:05:23;17.85;;;14.55;;
22525;SDS011;11429;50.842;4.386;2023-03-19T04:07:49;22.88;;;15.90;;
22525;SDS011;11429;50.842;4.386;2023-03-19T04:10:15;21.45;;;16.42;;
22525;SDS011;11429;50.842;4.386;2023-03-19T04:12:41;22.92;;;15.23;;
22525;SDS011;11429;50.842;4.386;2023-03-19T04:15:08;16.98;;;14.25;;
22525;SDS011;11429;50.842;4.386;2023-03-19T04:17:35;18.52;;;12.50;;
22525;SDS011;11429;50.842;4.386;2023-03-19T04:20:01;18.83;;;12.13;;
22525;SDS011;11429;50.842;4.386;2023-03-19T04:22:28;14.73;;;10.30;;
22525;SDS011;11429;50.842;4.386;2023-03-19T04:24:54;15.88;;;11.35;;
22525;SDS011;11429;50.842;4.386;2023-03-19T04:27:19;12.90;;;9.90;;
22525;SDS011;11429;50.842;4.386;2023-03-19T04:29:45;14.15;;;10.32;;
22525;SDS011;11429;50.842;4.386;2023-03-19T04:32:11;14.60;;;10.02;;
22525;SDS011;11429;50.842;4.386;2023-03-19T04:34:37;14.45;;;10.07;;
22525;SDS011;11429;50.842;4.386;2023-03-19T04:37:02;14.13;;;10.60;;
22525;SDS011;11429;50.842;4.386;2023-03-19T04:39:28;16.73;;;11.05;;
22525;SDS011;11429;50.842;4.386;2023-03-19T04:41:54;16.48;;;11.88;;
22525;SDS011;11429;50.842;4.386;2023-03-19T04:44:20;15.68;;;12.05;;
22525;SDS011;11429;50.842;4.386;2023-03-19T04:46:46;15.20;;;13.60;;
22525;SDS011;11429;50.842;4.386;2023-03-19T04:49:12;16.48;;;13.35;;
22525;SDS011;11429;50.842;4.386;2023-03-19T04:51:38;15.88;;;13.88;;
22525;SDS011;11429;50.842;4.386;2023-03-19T04:54:04;17.75;;;13.68;;
22525;SDS011;11429;50.842;4.386;2023-03-19T04:56:30;15.55;;;13.18;;
22525;SDS011;11429;50.842;4.386;2023-03-19T04:58:56;18.92;;;14.02;;
22525;SDS011;11429;50.842;4.386;2023-03-19T05:01:22;16.85;;;13.68;;
22525;SDS011;11429;50.842;4.386;2023-03-19T05:03:47;19.17;;;13.90;;
22525;SDS011;11429;50.842;4.386;2023-03-19T05:06:14;19.67;;;12.48;;
22525;SDS011;11429;50.842;4.386;2023-03-19T05:08:41;17.70;;;12.48;;
22525;SDS011;11429;50.842;4.386;2023-03-19T05:11:06;14.57;;;12.93;;
22525;SDS011;11429;50.842;4.386;2023-03-19T05:13:32;17.83;;;12.52;;
22525;SDS011;11429;50.842;4.386;2023-03-19T05:15:58;18.65;;;14.23;;
22525;SDS011;11429;50.842;4.386;2023-03-19T05:18:23;17.08;;;13.23;;
22525;SDS011;11429;50.842;4.386;2023-03-19T05:20:50;16.83;;;14.50;;
22525;SDS011;11429;50.842;4.386;2023-03-19T05:23:16;17.17;;;13.75;;
22525;SDS011;11429;50.842;4.386;2023-03-19T05:25:42;20.92;;;14.10;;
22525;SDS011;11429;50.842;4.386;2023-03-19T05:28:07;15.75;;;12.40;;
22525;SDS011;11429;50.842;4.386;2023-03-19T05:30:34;15.55;;;11.90;;
22525;SDS011;11429;50.842;4.386;2023-03-19T05:33:00;13.27;;;10.60;;
22525;SDS011;11429;50.842;4.386;2023-03-19T05:35:26;15.90;;;11.40;;
22525;SDS011;11429;50.842;4.386;2023-03-19T05:37:53;15.77;;;10.98;;
22525;SDS011;11429;50.842;4.386;2023-03-19T05:40:19;13.75;;;10.52;;
22525;SDS011;11429;50.842;4.386;2023-03-19T05:42:46;15.20;;;10.73;;
22525;SDS011;11429;50.842;4.386;2023-03-19T05:45:12;15.60;;;9.55;;
22525;SDS011;11429;50.842;4.386;2023-03-19T05:47:38;17.40;;;10.13;;
22525;SDS011;11429;50.842;4.386;2023-03-19T05:50:04;15.60;;;9.27;;
22525;SDS011;11429;50.842;4.386;2023-03-19T05:52:31;12.75;;;9.15;;
22525;SDS011;11429;50.842;4.386;2023-03-19T05:54:57;12.80;;;8.82;;
22525;SDS011;11429;50.842;4.386;2023-03-19T05:57:23;12.77;;;8.63;;
22525;SDS011;11429;50.842;4.386;2023-03-19T05:59:49;10.32;;;8.35;;
22525;SDS011;11429;50.842;4.386;2023-03-19T06:02:16;14.00;;;7.95;;
22525;SDS011;11429;50.842;4.386;2023-03-19T06:04:41;10.45;;;7.18;;
22525;SDS011;11429;50.842;4.386;2023-03-19T06:07:07;8.82;;;7.15;;
22525;SDS011;11429;50.842;4.386;2023-03-19T06:09:33;12.45;;;6.85;;
22525;SDS011;11429;50.842;4.386;2023-03-19T06:11:59;9.48;;;6.15;;
22525;SDS011;11429;50.842;4.386;2023-03-19T06:14:24;11.65;;;6.60;;
22525;SDS011;11429;50.842;4.386;2023-03-19T06:16:50;9.90;;;6.13;;
22525;SDS011;11429;50.842;4.386;2023-03-19T06:19:16;10.70;;;5.47;;
22525;SDS011;11429;50.842;4.386;2023-03-19T06:21:42;11.48;;;5.75;;
22525;SDS011;11429;50.842;4.386;2023-03-19T06:24:08;10.50;;;5.43;;
22525;SDS011;11429;50.842;4.386;2023-03-19T06:26:33;12.30;;;5.68;;
22525;SDS011;11429;50.842;4.386;2023-03-19T06:28:59;12.05;;;6.55;;
22525;SDS011;11429;50.842;4.386;2023-03-19T06:31:25;9.50;;;5.72;;
22525;SDS011;11429;50.842;4.386;2023-03-19T06:33:52;11.48;;;6.30;;
22525;SDS011;11429;50.842;4.386;2023-03-19T06:36:21;14.85;;;6.65;;
22525;SDS011;11429;50.842;4.386;2023-03-19T06:38:46;11.45;;;6.45;;
22525;SDS011;11429;50.842;4.386;2023-03-19T06:41:12;10.68;;;6.35;;
22525;SDS011;11429;50.842;4.386;2023-03-19T06:43:38;14.65;;;6.32;;
22525;SDS011;11429;50.842;4.386;2023-03-19T06:46:06;13.57;;;6.47;;
22525;SDS011;11429;50.842;4.386;2023-03-19T06:48:33;11.48;;;6.93;;
22525;SDS011;11429;50.842;4.386;2023-03-19T06:50:59;11.18;;;6.47;;
22525;SDS011;11429;50.842;4.386;2023-03-19T06:53:25;14.15;;;6.68;;
22525;SDS011;11429;50.842;4.386;2023-03-19T06:55:51;12.05;;;6.38;;
22525;SDS011;11429;50.842;4.386;2023-03-19T06:58:17;10.98;;;6.43;;
22525;SDS011;11429;50.842;4.386;2023-03-19T07:00:43;10.40;;;5.78;;
22525;SDS011;11429;50.842;4.386;2023-03-19T07:03:09;11.13;;;5.93;;
22525;SDS011;11429;50.842;4.386;2023-03-19T07:05:35;12.77;;;5.50;;
22525;SDS011;11429;50.842;4.386;2023-03-19T07:08:00;11.30;;;5.07;;
22525;SDS011;11429;50.842;4.386;2023-03-19T07:10:26;8.00;;;4.28;;
22525;SDS011;11429;50.842;4.386;2023-03-19T07:12:52;7.30;;;4.05;;
22525;SDS011;11429;50.842;4.386;2023-03-19T07:15:18;12.75;;;6.32;;
22525;SDS011;11429;50.842;4.386;2023-03-19T07:17:45;8.20;;;4.22;;
22525;SDS011;11429;50.842;4.386;2023-03-19T07:20:12;7.40;;;4.25;;
22525;SDS011;11429;50.842;4.386;2023-03-19T07:22:38;10.68;;;4.68;;
22525;SDS011;11429;50.842;4.386;2023-03-19T07:25:04;8.73;;;4.65;;
22525;SDS011;11429;50.842;4.386;2023-03-19T07:27:31;11.70;;;4.40;;
22525;SDS011;11429;50.842;4.386;2023-03-19T07:29:57;10.15;;;4.70;;
22525;SDS011;11429;50.842;4.386;2023-03-19T07:32:23;12.43;;;4.45;;
22525;SDS011;11429;50.842;4.386;2023-03-19T07:34:48;11.32;;;4.72;;
22525;SDS011;11429;50.842;4.386;2023-03-19T07:37:14;11.40;;;5.78;;
22525;SDS011;11429;50.842;4.386;2023-03-19T07:39:40;11.63;;;4.60;;
22525;SDS011;11429;50.842;4.386;2023-03-19T07:42:06;11.07;;;5.07;;
22525;SDS011;11429;50.842;4.386;2023-03-19T07:44:31;10.23;;;4.70;;
22525;SDS011;11429;50.842;4.386;2023-03-19T07:46:57;12.23;;;5.13;;
22525;SDS011;11429;50.842;4.386;2023-03-19T07:49:23;10.43;;;4.88;;
22525;SDS011;11429;50.842;4.386;2023-03-19T07:51:49;12.93;;;4.85;;
22525;SDS011;11429;50.842;4.386;2023-03-19T07:54:15;13.75;;;5.03;;
22525;SDS011;11429;50.842;4.386;2023-03-19T07:56:41;9.70;;;5.05;;
22525;SDS011;11429;50.842;4.386;2023-03-19T07:59:07;10.07;;;4.72;;
22525;SDS011;11429;50.842;4.386;2023-03-19T08:01:32;9.63;;;4.95;;
22525;SDS011;11429;50.842;4.386;2023-03-19T08:03:58;12.23;;;5.05;;
22525;SDS011;11429;50.842;4.386;2023-03-19T08:06:24;9.85;;;4.63;;
22525;SDS011;11429;50.842;4.386;2023-03-19T08:08:50;12.85;;;4.88;;
22525;SDS011;11429;50.842;4.386;2023-03-19T08:11:16;10.52;;;4.68;;
22525;SDS011;11429;50.842;4.386;2023-03-19T08:13:42;12.57;;;4.35;;
22525;SDS011;11429;50.842;4.386;2023-03-19T08:16:07;10.80;;;4.65;;
22525;SDS011;11429;50.842;4.386;2023-03-19T08:18:34;13.00;;;4.75;;
22525;SDS011;11429;50.842;4.386;2023-03-19T08:21:00;14.43;;;5.05;;
22525;SDS011;11429;50.842;4.386;2023-03-19T08:23:26;13.32;;;4.95;;
22525;SDS011;11429;50.842;4.386;2023-03-19T08:25:52;16.40;;;4.63;;
22525;SDS011;11429;50.842;4.386;2023-03-19T08:28:19;12.02;;;4.35;;
22525;SDS011;11429;50.842;4.386;2023-03-19T08:30:45;13.02;;;4.20;;
22525;SDS011;11429;50.842;4.386;2023-03-19T08:33:11;17.92;;;4.53;;
22525;SDS011;11429;50.842;4.386;2023-03-19T08:35:37;12.15;;;3.88;;
22525;SDS011;11429;50.842;4.386;2023-03-19T08:38:03;11.75;;;4.07;;
22525;SDS011;11429;50.842;4.386;2023-03-19T08:40:28;10.20;;;3.83;;
22525;SDS011;11429;50.842;4.386;2023-03-19T08:42:54;13.02;;;4.32;;
22525;SDS011;11429;50.842;4.386;2023-03-19T08:45:20;14.07;;;4.20;;
22525;SDS011;11429;50.842;4.386;2023-03-19T08:47:47;11.70;;;4.00;;
22525;SDS011;11429;50.842;4.386;2023-03-19T08:50:13;11.55;;;4.28;;
22525;SDS011;11429;50.842;4.386;2023-03-19T08:52:39;11.73;;;4.32;;
22525;SDS011;11429;50.842;4.386;2023-03-19T08:55:05;11.85;;;3.83;;
22525;SDS011;11429;50.842;4.386;2023-03-19T08:57:32;10.50;;;4.43;;
22525;SDS011;11429;50.842;4.386;2023-03-19T08:59:58;11.63;;;4.35;;
22525;SDS011;11429;50.842;4.386;2023-03-19T09:02:24;12.90;;;4.05;;
22525;SDS011;11429;50.842;4.386;2023-03-19T09:04:50;15.57;;;4.22;;
22525;SDS011;11429;50.842;4.386;2023-03-19T09:07:15;11.70;;;4.05;;
22525;SDS011;11429;50.842;4.386;2023-03-19T09:09:41;13.57;;;4.00;;
22525;SDS011;11429;50.842;4.386;2023-03-19T09:12:08;10.95;;;3.78;;
22525;SDS011;11429;50.842;4.386;2023-03-19T09:14:36;10.38;;;3.83;;
22525;SDS011;11429;50.842;4.386;2023-03-19T09:17:02;12.73;;;3.90;;
22525;SDS011;11429;50.842;4.386;2023-03-19T09:19:28;11.52;;;4.03;;
22525;SDS011;11429;50.842;4.386;2023-03-19T09:21:54;13.82;;;4.90;;
22525;SDS011;11429;50.842;4.386;2023-03-19T09:24:20;11.15;;;4.30;;
22525;SDS011;11429;50.842;4.386;2023-03-19T09:26:46;14.15;;;3.97;;
22525;SDS011;11429;50.842;4.386;2023-03-19T09:29:12;12.15;;;4.13;;
22525;SDS011;11429;50.842;4.386;2023-03-19T09:31:38;12.65;;;4.57;;
22525;SDS011;11429;50.842;4.386;2023-03-19T09:34:03;11.02;;;3.45;;
22525;SDS011;11429;50.842;4.386;2023-03-19T09:36:31;13.88;;;4.18;;
22525;SDS011;11429;50.842;4.386;2023-03-19T09:38:57;15.10;;;4.07;;
22525;SDS011;11429;50.842;4.386;2023-03-19T09:41:28;10.20;;;4.10;;
22525;SDS011;11429;50.842;4.386;2023-03-19T09:44:09;13.13;;;4.22;;
22525;SDS011;11429;50.842;4.386;2023-03-19T09:49:45;7.85;;;3.70;;
22525;SDS011;11429;50.842;4.386;2023-03-19T09:57:48;12.05;;;4.00;;
22525;SDS011;11429;50.842;4.386;2023-03-19T10:02:49;11.43;;;4.05;;
22525;SDS011;11429;50.842;4.386;2023-03-19T10:08:44;14.88;;;4.45;;
22525;SDS011;11429;50.842;4.386;2023-03-19T10:16:30;17.67;;;5.28;;
22525;SDS011;11429;50.842;4.386;2023-03-19T10:18:57;12.38;;;5.15;;
22525;SDS011;11429;50.842;4.386;2023-03-19T10:21:34;13.23;;;5.03;;
22525;SDS011;11429;50.842;4.386;2023-03-19T10:24:10;15.60;;;5.22;;
22525;SDS011;11429;50.842;4.386;2023-03-19T10:26:39;15.27;;;5.50;;
22525;SDS011;11429;50.842;4.386;2023-03-19T10:29:07;13.95;;;5.00;;
22525;SDS011;11429;50.842;4.386;2023-03-19T10:31:43;12.10;;;4.93;;
22525;SDS011;11429;50.842;4.386;2023-03-19T10:34:16;11.50;;;4.90;;
22525;SDS011;11429;50.842;4.386;2023-03-19T10:36:49;12.48;;;5.32;;
22525;SDS011;11429;50.842;4.386;2023-03-19T10:39:27;16.88;;;5.90;;
22525;SDS011;11429;50.842;4.386;2023-03-19T10:47:26;14.77;;;5.10;;
22525;SDS011;11429;50.842;4.386;2023-03-19T10:49:52;16.20;;;5.85;;
22525;SDS011;11429;50.842;4.386;2023-03-19T10:52:21;21.45;;;5.95;;
22525;SDS011;11429;50.842;4.386;2023-03-19T10:55:01;13.85;;;5.40;;
22525;SDS011;11429;50.842;4.386;2023-03-19T10:57:29;13.60;;;5.88;;
22525;SDS011;11429;50.842;4.386;2023-03-19T11:00:04;14.30;;;5.05;;
22525;SDS011;11429;50.842;4.386;2023-03-19T11:02:31;15.38;;;5.38;;
22525;SDS011;11429;50.842;4.386;2023-03-19T11:07:38;13.07;;;5.75;;
22525;SDS011;11429;50.842;4.386;2023-03-19T11:10:05;10.52;;;5.13;;
22525;SDS011;11429;50.842;4.386;2023-03-19T11:15:14;12.00;;;5.47;;
22525;SDS011;11429;50.842;4.386;2023-03-19T11:17:45;14.70;;;6.55;;
22525;SDS011;11429;50.842;4.386;2023-03-19T11:20:42;15.43;;;7.35;;
22525;SDS011;11429;50.842;4.386;2023-03-19T11:23:14;15.10;;;7.85;;
22525;SDS011;11429;50.842;4.386;2023-03-19T11:25:45;19.60;;;8.10;;
22525;SDS011;11429;50.842;4.386;2023-03-19T11:28:16;13.32;;;6.93;;
22525;SDS011;11429;50.842;4.386;2023-03-19T11:36:38;13.85;;;8.00;;
22525;SDS011;11429;50.842;4.386;2023-03-19T11:39:29;11.70;;;7.90;;
22525;SDS011;11429;50.842;4.386;2023-03-19T11:42:24;11.93;;;6.97;;
22525;SDS011;11429;50.842;4.386;2023-03-19T11:53:22;12.32;;;6.70;;
22525;SDS011;11429;50.842;4.386;2023-03-19T12:10:25;13.02;;;6.13;;
22525;SDS011;11429;50.842;4.386;2023-03-19T12:21:07;13.98;;;8.38;;
22525;SDS011;11429;50.842;4.386;2023-03-19T12:23:45;13.20;;;8.85;;
22525;SDS011;11429;50.842;4.386;2023-03-19T12:26:38;13.32;;;8.38;;
22525;SDS011;11429;50.842;4.386;2023-03-19T12:34:45;14.20;;;7.85;;
22525;SDS011;11429;50.842;4.386;2023-03-19T12:37:27;13.00;;;8.27;;
22525;SDS011;11429;50.842;4.386;2023-03-19T12:40:21;12.95;;;8.38;;
22525;SDS011;11429;50.842;4.386;2023-03-19T12:42:51;17.65;;;9.10;;
22525;SDS011;11429;50.842;4.386;2023-03-19T12:45:25;14.05;;;9.85;;
22525;SDS011;11429;50.842;4.386;2023-03-19T12:48:03;15.05;;;8.63;;
22525;SDS011;11429;50.842;4.386;2023-03-19T12:50:43;14.75;;;9.02;;
22525;SDS011;11429;50.842;4.386;2023-03-19T12:56:08;18.08;;;8.95;;
22525;SDS011;11429;50.842;4.386;2023-03-19T13:01:15;15.10;;;8.35;;
22525;SDS011;11429;50.842;4.386;2023-03-19T13:03:58;14.63;;;8.57;;
22525;SDS011;11429;50.842;4.386;2023-03-19T13:06:40;12.63;;;7.65;;
22525;SDS011;11429;50.842;4.386;2023-03-19T13:09:34;10.00;;;7.05;;
22525;SDS011;11429;50.842;4.386;2023-03-19T13:12:16;13.30;;;8.15;;
22525;SDS011;11429;50.842;4.386;2023-03-19T13:14:48;10.90;;;7.47;;
22525;SDS011;11429;50.842;4.386;2023-03-19T13:20:49;15.32;;;9.77;;
22525;SDS011;11429;50.842;4.386;2023-03-19T13:23:39;16.52;;;9.93;;
22525;SDS011;11429;50.842;4.386;2023-03-19T13:26:06;13.85;;;10.35;;
22525;SDS011;11429;50.842;4.386;2023-03-19T13:28:36;15.65;;;10.52;;
22525;SDS011;11429;50.842;4.386;2023-03-19T13:31:23;15.68;;;9.95;;
22525;SDS011;11429;50.842;4.386;2023-03-19T13:33:50;17.13;;;11.90;;
22525;SDS011;11429;50.842;4.386;2023-03-19T13:36:25;19.10;;;10.68;;
22525;SDS011;11429;50.842;4.386;2023-03-19T13:38:54;16.60;;;10.43;;
22525;SDS011;11429;50.842;4.386;2023-03-19T13:43:51;15.10;;;10.20;;
22525;SDS011;11429;50.842;4.386;2023-03-19T13:59:45;12.20;;;8.23;;
22525;SDS011;11429;50.842;4.386;2023-03-19T14:07:49;13.40;;;8.48;;
22525;SDS011;11429;50.842;4.386;2023-03-19T14:10:27;10.70;;;7.32;;
22525;SDS011;11429;50.842;4.386;2023-03-19T14:13:01;11.45;;;7.28;;
22525;SDS011;11429;50.842;4.386;2023-03-19T14:15:39;8.85;;;6.15;;
22525;SDS011;11429;50.842;4.386;2023-03-19T14:18:12;9.43;;;6.53;;
22525;SDS011;11429;50.842;4.386;2023-03-19T14:20:44;9.70;;;6.07;;
22525;SDS011;11429;50.842;4.386;2023-03-19T14:23:22;8.32;;;5.55;;
22525;SDS011;11429;50.842;4.386;2023-03-19T14:28:17;7.28;;;6.05;;
22525;SDS011;11429;50.842;4.386;2023-03-19T14:30:48;9.30;;;6.70;;
22525;SDS011;11429;50.842;4.386;2023-03-19T14:35:55;11.10;;;7.00;;
22525;SDS011;11429;50.842;4.386;2023-03-19T14:40:53;10.80;;;7.35;;
22525;SDS011;11429;50.842;4.386;2023-03-19T14:46:08;8.73;;;6.90;;
22525;SDS011;11429;50.842;4.386;2023-03-19T14:49:20;9.90;;;6.55;;
22525;SDS011;11429;50.842;4.386;2023-03-19T14:57:20;8.63;;;6.45;;
22525;SDS011;11429;50.842;4.386;2023-03-19T14:59:53;7.38;;;5.70;;
22525;SDS011;11429;50.842;4.386;2023-03-19T15:02:23;9.43;;;5.88;;
22525;SDS011;11429;50.842;4.386;2023-03-19T15:04:59;8.50;;;5.78;;
22525;SDS011;11429;50.842;4.386;2023-03-19T15:07:31;8.02;;;5.70;;
22525;SDS011;11429;50.842;4.386;2023-03-19T15:10:00;6.53;;;5.28;;
22525;SDS011;11429;50.842;4.386;2023-03-19T15:18:00;7.28;;;4.50;;
22525;SDS011;11429;50.842;4.386;2023-03-19T15:20:36;8.73;;;4.47;;
22525;SDS011;11429;50.842;4.386;2023-03-19T15:23:20;5.70;;;3.35;;
22525;SDS011;11429;50.842;4.386;2023-03-19T15:25:54;6.30;;;3.00;;
22525;SDS011;11429;50.842;4.386;2023-03-19T15:28:25;4.60;;;2.72;;
22525;SDS011;11429;50.842;4.386;2023-03-19T15:30:56;6.85;;;2.75;;
22525;SDS011;11429;50.842;4.386;2023-03-19T15:33:34;7.03;;;2.85;;
22525;SDS011;11429;50.842;4.386;2023-03-19T15:36:03;6.07;;;2.88;;
22525;SDS011;11429;50.842;4.386;2023-03-19T15:38:33;12.73;;;3.65;;
22525;SDS011;11429;50.842;4.386;2023-03-19T15:41:06;8.38;;;3.28;;
22525;SDS011;11429;50.842;4.386;2023-03-19T15:43:35;5.38;;;3.47;;
22525;SDS011;11429;50.842;4.386;2023-03-19T15:46:06;7.13;;;3.75;;
22525;SDS011;11429;50.842;4.386;2023-03-19T15:51:12;6.35;;;4.03;;
22525;SDS011;11429;50.842;4.386;2023-03-19T15:53:53;5.47;;;3.17;;
22525;SDS011;11429;50.842;4.386;2023-03-19T15:56:19;8.43;;;4.30;;
22525;SDS011;11429;50.842;4.386;2023-03-19T15:58:48;6.28;;;4.10;;
22525;SDS011;11429;50.842;4.386;2023-03-19T16:01:16;6.97;;;4.20;;
22525;SDS011;11429;50.842;4.386;2023-03-19T16:03:57;8.07;;;4.53;;
22525;SDS011;11429;50.842;4.386;2023-03-19T16:06:28;8.88;;;4.60;;
22525;SDS011;11429;50.842;4.386;2023-03-19T16:11:44;7.57;;;4.65;;
22525;SDS011;11429;50.842;4.386;2023-03-19T16:14:17;8.43;;;5.13;;
22525;SDS011;11429;50.842;4.386;2023-03-19T16:16:48;9.85;;;5.68;;
22525;SDS011;11429;50.842;4.386;2023-03-19T16:19:26;7.20;;;5.03;;
22525;SDS011;11429;50.842;4.386;2023-03-19T16:21:58;7.45;;;5.35;;
22525;SDS011;11429;50.842;4.386;2023-03-19T16:24:35;9.77;;;4.90;;
22525;SDS011;11429;50.842;4.386;2023-03-19T16:27:04;11.35;;;5.50;;
22525;SDS011;11429;50.842;4.386;2023-03-19T16:29:34;8.77;;;5.65;;
22525;SDS011;11429;50.842;4.386;2023-03-19T16:32:28;12.40;;;6.30;;
22525;SDS011;11429;50.842;4.386;2023-03-19T16:42:38;10.02;;;5.82;;
22525;SDS011;11429;50.842;4.386;2023-03-19T16:47:43;16.00;;;6.88;;
22525;SDS011;11429;50.842;4.386;2023-03-19T16:50:13;13.35;;;6.60;;
22525;SDS011;11429;50.842;4.386;2023-03-19T16:52:39;9.07;;;6.03;;
22525;SDS011;11429;50.842;4.386;2023-03-19T16:55:23;10.48;;;5.97;;
22525;SDS011;11429;50.842;4.386;2023-03-19T17:00:36;10.73;;;6.40;;
22525;SDS011;11429;50.842;4.386;2023-03-19T17:03:02;9.82;;;6.22;;
22525;SDS011;11429;50.842;4.386;2023-03-19T17:05:35;10.15;;;6.32;;
22525;SDS011;11429;50.842;4.386;2023-03-19T17:08:00;6.90;;;5.50;;
22525;SDS011;11429;50.842;4.386;2023-03-19T17:10:26;8.88;;;5.82;;
22525;SDS011;11429;50.842;4.386;2023-03-19T17:12:54;10.27;;;6.10;;
22525;SDS011;11429;50.842;4.386;2023-03-19T17:17:49;7.97;;;4.40;;